Time;durP1;ratioP1;P1;durP2;ratioP2;P2;SDS_P1;SDS_P2;PMS_P1;PMS_P2;Temp;Humidity;BMP_temperature;BMP_pressure;BME280_temperature;BME280_humidity;BME280_pressure;Samples;Min_cycle;Max_cycle;Signal;HPM_P1;HPM_P2
2023/06/15 00:01:42;;;;;;;3.28;2.90;;;;;;;;;;6203448;28;20143;-79
2023/06/15 00:04:44;;;;;;;3.85;2.80;;;;;;;;;;6184226;28;20125;-79
2023/06/15 00:07:46;;;;;;;6.47;3.00;;;;;;;;;;6187635;28;20038;-79
2023/06/15 00:10:49;;;;;;;3.72;2.83;;;;;;;;;;6181495;28;20408;-80
2023/06/15 00:13:50;;;;;;;4.80;3.05;;;;;;;;;;6199242;28;20038;-80
2023/06/15 00:16:52;;;;;;;3.28;2.90;;;;;;;;;;6189481;28;20049;-81
2023/06/15 00:19:57;;;;;;;4.07;3.15;;;;;;;;;;6205927;28;20046;-83
2023/06/15 00:22:59;;;;;;;4.47;2.83;;;;;;;;;;6191917;28;20050;-80
2023/06/15 00:26:00;;;;;;;3.17;2.88;;;;;;;;;;6179532;28;20053;-80
2023/06/15 00:29:02;;;;;;;3.70;2.95;;;;;;;;;;6188279;28;20077;-83
2023/06/15 00:32:05;;;;;;;3.97;3.30;;;;;;;;;;6185554;28;20046;-79
2023/06/15 00:35:07;;;;;;;4.57;3.28;;;;;;;;;;6204876;28;20500;-83
2023/06/15 00:38:09;;;;;;;3.28;2.83;;;;;;;;;;6184112;28;20509;-80
2023/06/15 00:41:11;;;;;;;3.83;3.03;;;;;;;;;;6177968;28;20042;-82
2023/06/15 00:44:13;;;;;;;3.45;3.08;;;;;;;;;;6170833;28;20049;-82
2023/06/15 00:47:18;;;;;;;3.67;3.25;;;;;;;;;;6203949;28;20057;-80
2023/06/15 00:50:20;;;;;;;4.15;3.20;;;;;;;;;;6200434;28;20120;-81
2023/06/15 00:53:23;;;;;;;3.40;3.10;;;;;;;;;;6198315;28;20128;-79
2023/06/15 00:56:29;;;;;;;3.20;2.80;;;;;;;;;;6185293;28;20432;-80
2023/06/15 00:59:30;;;;;;;4.78;3.00;;;;;;;;;;6192452;28;20046;-80
2023/06/15 01:02:34;;;;;;;5.63;2.92;;;;;;;;;;6199323;28;20049;-81
2023/06/15 01:05:36;;;;;;;4.05;3.05;;;;;;;;;;6185778;28;20044;-80
2023/06/15 01:08:40;;;;;;;4.38;3.67;;;;;;;;;;6189651;28;20057;-82
2023/06/15 01:11:42;;;;;;;4.50;3.20;;;;;;;;;;6198810;28;20035;-79
2023/06/15 01:14:44;;;;;;;4.68;3.33;;;;;;;;;;6179575;28;20518;-80
2023/06/15 01:17:46;;;;;;;4.30;3.28;;;;;;;;;;6204812;28;20128;-80
2023/06/15 01:20:53;;;;;;;4.30;3.40;;;;;;;;;;6192082;28;20550;-80
2023/06/15 01:24:13;;;;;;;4.15;3.22;;;;;;;;;;6186965;28;20045;-82
2023/06/15 01:27:18;;;;;;;6.55;4.00;;;;;;;;;;6191747;28;20145;-82
2023/06/15 01:30:20;;;;;;;3.85;3.35;;;;;;;;;;6201563;28;20054;-80
2023/06/15 01:33:22;;;;;;;3.92;3.25;;;;;;;;;;6174842;28;20048;-80
2023/06/15 01:36:24;;;;;;;3.43;3.00;;;;;;;;;;6186599;28;20050;-80
2023/06/15 01:39:26;;;;;;;3.85;3.17;;;;;;;;;;6167581;28;20833;-81
2023/06/15 01:42:29;;;;;;;3.60;3.22;;;;;;;;;;6180857;28;20165;-79
2023/06/15 01:45:34;;;;;;;3.67;3.10;;;;;;;;;;6187439;28;20050;-79
2023/06/15 01:48:36;;;;;;;3.63;3.25;;;;;;;;;;6189060;28;20124;-79
2023/06/15 01:51:38;;;;;;;4.00;3.25;;;;;;;;;;6198171;28;20045;-79
2023/06/15 01:54:40;;;;;;;3.38;2.88;;;;;;;;;;6178253;28;20057;-79
2023/06/15 01:57:42;;;;;;;4.68;3.28;;;;;;;;;;6189501;28;20105;-80
2023/06/15 02:00:44;;;;;;;3.50;3.00;;;;;;;;;;6171000;28;20046;-80
2023/06/15 02:03:46;;;;;;;5.07;3.33;;;;;;;;;;6197744;28;20069;-79
2023/06/15 02:06:47;;;;;;;3.70;3.03;;;;;;;;;;6182675;28;20054;-81
2023/06/15 02:09:51;;;;;;;5.40;3.70;;;;;;;;;;6185102;28;20154;-79
2023/06/15 02:12:53;;;;;;;5.00;3.67;;;;;;;;;;6181388;28;20050;-82
2023/06/15 02:15:55;;;;;;;5.50;3.45;;;;;;;;;;6183762;28;20049;-82
2023/06/15 02:19:00;;;;;;;4.13;3.50;;;;;;;;;;6184089;28;20049;-80
2023/06/15 02:22:02;;;;;;;3.38;3.08;;;;;;;;;;6208112;28;20049;-79
2023/06/15 02:25:04;;;;;;;4.78;3.60;;;;;;;;;;6187878;28;20141;-80
2023/06/15 02:28:06;;;;;;;5.82;3.85;;;;;;;;;;6201656;28;20128;-80
2023/06/15 02:31:10;;;;;;;5.88;4.03;;;;;;;;;;6184140;28;20062;-81
2023/06/15 02:34:12;;;;;;;4.05;3.45;;;;;;;;;;6199600;28;20045;-79
2023/06/15 02:37:13;;;;;;;5.13;3.58;;;;;;;;;;6181760;28;20058;-83
2023/06/15 02:40:15;;;;;;;4.43;3.63;;;;;;;;;;6173185;28;20058;-80
2023/06/15 02:43:17;;;;;;;7.43;3.80;;;;;;;;;;6187451;28;20046;-80
2023/06/15 02:46:20;;;;;;;4.75;3.47;;;;;;;;;;6188324;28;20050;-79
2023/06/15 02:49:23;;;;;;;4.60;3.40;;;;;;;;;;6165861;28;20523;-80
2023/06/15 02:52:26;;;;;;;6.20;4.20;;;;;;;;;;6167363;28;20054;-79
2023/06/15 02:55:28;;;;;;;5.20;3.92;;;;;;;;;;6186762;28;20415;-80
2023/06/15 02:58:32;;;;;;;5.50;3.72;;;;;;;;;;6176021;28;20038;-80
2023/06/15 03:01:53;;;;;;;4.18;3.42;;;;;;;;;;6168491;28;20054;-79
2023/06/15 03:04:56;;;;;;;5.60;3.80;;;;;;;;;;6189569;28;21145;-80
2023/06/15 03:08:07;;;;;;;4.68;3.55;;;;;;;;;;6181277;28;20046;-78
2023/06/15 03:11:16;;;;;;;5.50;4.60;;;;;;;;;;6156881;28;20052;-82
2023/06/15 03:14:21;;;;;;;4.93;3.97;;;;;;;;;;6167618;28;20069;-78
2023/06/15 03:17:24;;;;;;;4.03;3.35;;;;;;;;;;6165813;28;20655;-78
2023/06/15 03:20:32;;;;;;;4.05;3.65;;;;;;;;;;6188691;28;20125;-80
2023/06/15 03:23:38;;;;;;;4.00;3.50;;;;;;;;;;6162442;28;20034;-79
2023/06/15 03:26:43;;;;;;;4.15;3.50;;;;;;;;;;6158663;28;20520;-80
2023/06/15 03:29:49;;;;;;;4.07;3.63;;;;;;;;;;6184227;28;20049;-80
2023/06/15 03:32:53;;;;;;;4.55;3.92;;;;;;;;;;6168691;28;20089;-77
2023/06/15 03:35:55;;;;;;;4.70;3.80;;;;;;;;;;6165494;28;20042;-78
2023/06/15 03:38:57;;;;;;;4.88;4.03;;;;;;;;;;6180069;28;20042;-79
2023/06/15 03:41:59;;;;;;;5.60;3.95;;;;;;;;;;6157597;28;20052;-79
2023/06/15 03:45:01;;;;;;;7.07;3.97;;;;;;;;;;6175176;28;20530;-77
2023/06/15 03:48:04;;;;;;;5.78;4.43;;;;;;;;;;6177293;28;20082;-78
2023/06/15 03:51:06;;;;;;;5.53;4.05;;;;;;;;;;6180093;28;20065;-80
2023/06/15 03:54:08;;;;;;;6.47;4.32;;;;;;;;;;6164601;28;20128;-77
2023/06/15 03:57:10;;;;;;;8.95;4.25;;;;;;;;;;6175596;28;20052;-78
2023/06/15 04:00:14;;;;;;;6.00;3.92;;;;;;;;;;6197097;28;20100;-79
2023/06/15 04:03:20;;;;;;;4.55;4.05;;;;;;;;;;6193653;28;20057;-81
2023/06/15 04:06:23;;;;;;;5.65;4.32;;;;;;;;;;6170444;28;20049;-78
2023/06/15 04:09:25;;;;;;;5.88;4.50;;;;;;;;;;6178260;28;20049;-77
2023/06/15 04:12:26;;;;;;;4.82;4.20;;;;;;;;;;6182971;28;20084;-78
2023/06/15 04:15:29;;;;;;;9.37;4.60;;;;;;;;;;6182139;28;20049;-79
2023/06/15 04:18:33;;;;;;;4.65;3.80;;;;;;;;;;6193689;28;20615;-78
2023/06/15 04:21:34;;;;;;;5.93;4.38;;;;;;;;;;6186051;28;20046;-78
2023/06/15 04:24:36;;;;;;;6.68;4.28;;;;;;;;;;6177359;28;20181;-81
2023/06/15 04:27:39;;;;;;;4.80;4.07;;;;;;;;;;6197169;28;20073;-78
2023/06/15 04:30:44;;;;;;;6.53;4.75;;;;;;;;;;6200482;28;20104;-78
2023/06/15 04:33:47;;;;;;;6.50;3.97;;;;;;;;;;6168966;28;20048;-79
2023/06/15 04:36:50;;;;;;;6.30;4.20;;;;;;;;;;6185136;28;20407;-78
2023/06/15 04:39:52;;;;;;;7.07;4.50;;;;;;;;;;6180432;28;20038;-77
2023/06/15 04:42:53;;;;;;;5.50;4.15;;;;;;;;;;6175809;28;20168;-77
2023/06/15 04:45:55;;;;;;;6.40;4.30;;;;;;;;;;6199811;28;20118;-78
2023/06/15 04:48:58;;;;;;;5.78;4.22;;;;;;;;;;6184848;28;21333;-78
2023/06/15 04:52:00;;;;;;;6.47;4.80;;;;;;;;;;6185975;28;20042;-78
2023/06/15 04:55:02;;;;;;;4.82;4.07;;;;;;;;;;6180502;28;20042;-78
2023/06/15 04:58:06;;;;;;;6.95;4.53;;;;;;;;;;6191537;28;20046;-78
2023/06/15 05:01:08;;;;;;;7.57;4.65;;;;;;;;;;6182980;28;20046;-77
2023/06/15 05:04:10;;;;;;;5.53;4.68;;;;;;;;;;6170866;28;20045;-80
2023/06/15 05:07:12;;;;;;;9.02;5.00;;;;;;;;;;6201139;28;20049;-78
2023/06/15 05:10:21;;;;;;;10.23;6.60;;;;;;;;;;6164394;28;20593;-79
2023/06/15 05:13:38;;;;;;;10.57;5.22;;;;;;;;;;6186512;28;20034;-77
2023/06/15 05:16:40;;;;;;;11.25;5.40;;;;;;;;;;6202620;28;20561;-80
2023/06/15 05:19:41;;;;;;;11.65;5.75;;;;;;;;;;6184947;28;20045;-78
2023/06/15 05:22:44;;;;;;;8.25;5.72;;;;;;;;;;6181604;28;20452;-78
2023/06/15 05:25:45;;;;;;;7.43;5.22;;;;;;;;;;6186239;28;20046;-79
2023/06/15 05:28:47;;;;;;;9.13;5.60;;;;;;;;;;6200640;28;20646;-81
2023/06/15 05:31:49;;;;;;;8.65;5.25;;;;;;;;;;6189025;28;20046;-81
2023/06/15 05:34:52;;;;;;;10.63;5.22;;;;;;;;;;6165088;28;20061;-79
2023/06/15 05:37:54;;;;;;;14.07;5.40;;;;;;;;;;6178434;28;20527;-80
2023/06/15 05:40:56;;;;;;;13.38;5.55;;;;;;;;;;6177246;28;20050;-79
2023/06/15 05:44:02;;;;;;;12.63;5.67;;;;;;;;;;6185691;28;20045;-78
2023/06/15 05:47:04;;;;;;;17.63;5.60;;;;;;;;;;6177685;28;20041;-78
2023/06/15 05:50:07;;;;;;;17.35;6.10;;;;;;;;;;6186635;28;20069;-80
2023/06/15 05:53:09;;;;;;;10.65;6.03;;;;;;;;;;6182584;28;20069;-78
2023/06/15 05:56:11;;;;;;;17.40;6.40;;;;;;;;;;6177582;28;20076;-78
2023/06/15 05:59:13;;;;;;;12.60;5.45;;;;;;;;;;6200951;28;20073;-82
2023/06/15 06:02:32;;;;;;;24.00;6.10;;;;;;;;;;6200733;28;20125;-80
2023/06/15 06:05:34;;;;;;;16.98;5.72;;;;;;;;;;6182023;28;20066;-78
2023/06/15 06:08:36;;;;;;;17.33;5.47;;;;;;;;;;6175982;28;20719;-78
2023/06/15 06:11:38;;;;;;;20.88;5.90;;;;;;;;;;6185468;28;20502;-78
2023/06/15 06:14:39;;;;;;;20.52;6.53;;;;;;;;;;6185972;28;20038;-81
2023/06/15 06:17:43;;;;;;;19.65;5.70;;;;;;;;;;6182649;28;20038;-77
2023/06/15 06:21:05;;;;;;;14.68;5.65;;;;;;;;;;6180142;28;20046;-79
2023/06/15 06:24:10;;;;;;;18.02;5.72;;;;;;;;;;6186831;28;20070;-78
2023/06/15 06:27:12;;;;;;;17.13;5.75;;;;;;;;;;6199916;28;20065;-78
2023/06/15 06:30:13;;;;;;;18.55;5.47;;;;;;;;;;6198476;28;20078;-77
2023/06/15 06:33:15;;;;;;;16.67;5.90;;;;;;;;;;6183017;28;20185;-80
2023/06/15 06:36:17;;;;;;;22.13;6.18;;;;;;;;;;6198225;28;20054;-81
2023/06/15 06:39:18;;;;;;;16.33;6.03;;;;;;;;;;6194797;28;20180;-83
2023/06/15 06:42:20;;;;;;;12.60;5.00;;;;;;;;;;6196060;28;20140;-82
2023/06/15 06:45:23;;;;;;;13.52;5.13;;;;;;;;;;6201768;28;20041;-80
2023/06/15 06:48:29;;;;;;;9.15;4.40;;;;;;;;;;6200122;28;20054;-80
2023/06/15 06:51:31;;;;;;;13.45;4.93;;;;;;;;;;6192995;28;20046;-81
2023/06/15 06:54:34;;;;;;;9.40;4.70;;;;;;;;;;6177882;28;20053;-80
2023/06/15 06:57:36;;;;;;;8.18;4.22;;;;;;;;;;6182780;28;20049;-78
2023/06/15 07:00:37;;;;;;;11.40;4.73;;;;;;;;;;6184844;28;20124;-78
2023/06/15 07:03:39;;;;;;;10.57;4.68;;;;;;;;;;6180471;28;20050;-78
2023/06/15 07:06:41;;;;;;;9.27;4.23;;;;;;;;;;6198414;28;20046;-78
2023/06/15 07:09:43;;;;;;;10.52;4.35;;;;;;;;;;6184187;28;20070;-79
2023/06/15 07:12:44;;;;;;;8.23;4.10;;;;;;;;;;6199599;28;20894;-82
2023/06/15 07:15:46;;;;;;;8.55;3.78;;;;;;;;;;6187301;28;20184;-80
2023/06/15 07:18:48;;;;;;;6.05;3.85;;;;;;;;;;6182404;28;20049;-81
2023/06/15 07:21:49;;;;;;;6.05;4.25;;;;;;;;;;6192300;28;20066;-79
2023/06/15 07:24:51;;;;;;;5.07;3.75;;;;;;;;;;6183078;28;20042;-78
2023/06/15 07:27:53;;;;;;;5.70;3.75;;;;;;;;;;6200446;28;20061;-81
2023/06/15 07:30:55;;;;;;;5.03;3.65;;;;;;;;;;6198846;28;20049;-81
2023/06/15 07:33:57;;;;;;;7.03;4.00;;;;;;;;;;6183094;28;20056;-78
2023/06/15 07:36:59;;;;;;;6.78;3.80;;;;;;;;;;6195245;28;20054;-79
2023/06/15 07:40:00;;;;;;;6.07;3.38;;;;;;;;;;6194332;28;20074;-79
2023/06/15 07:43:02;;;;;;;7.55;4.00;;;;;;;;;;6177974;28;20104;-81
2023/06/15 07:46:04;;;;;;;7.23;3.63;;;;;;;;;;6192432;28;20536;-80
2023/06/15 07:49:07;;;;;;;4.35;3.65;;;;;;;;;;6178249;28;20042;-83
2023/06/15 07:52:08;;;;;;;;;;;;;;;;;;6182301;28;20060;-79
2023/06/15 07:55:11;;;;;;;3.53;3.13;;;;;;;;;;6196018;28;20304;-79
2023/06/15 07:58:13;;;;;;;5.32;4.00;;;;;;;;;;6192490;28;20081;-80
2023/06/15 08:01:15;;;;;;;8.05;3.70;;;;;;;;;;6184354;28;20049;-79
2023/06/15 08:04:16;;;;;;;5.45;3.20;;;;;;;;;;6205699;28;20081;-83
2023/06/15 08:07:19;;;;;;;5.68;3.40;;;;;;;;;;6204220;28;20046;-79
2023/06/15 08:10:21;;;;;;;7.13;3.80;;;;;;;;;;6186405;28;20050;-79
2023/06/15 08:13:23;;;;;;;5.15;3.47;;;;;;;;;;6208578;28;20188;-80
2023/06/15 08:16:25;;;;;;;4.13;3.20;;;;;;;;;;6191041;28;20115;-79
2023/06/15 08:19:27;;;;;;;5.10;3.70;;;;;;;;;;6168814;28;20042;-79
2023/06/15 08:22:28;;;;;;;4.50;3.23;;;;;;;;;;6194063;28;20052;-80
2023/06/15 08:25:34;;;;;;;7.55;3.78;;;;;;;;;;6188657;28;20519;-80
2023/06/15 08:28:35;;;;;;;4.88;3.13;;;;;;;;;;6205833;28;20042;-81
2023/06/15 08:31:53;;;;;;;3.80;3.28;;;;;;;;;;6205806;28;20503;-79
2023/06/15 08:34:55;;;;;;;5.47;3.43;;;;;;;;;;6202277;28;20041;-80
2023/06/15 08:37:57;;;;;;;5.93;4.22;;;;;;;;;;6198385;28;20053;-79
2023/06/15 08:40:59;;;;;;;4.53;3.55;;;;;;;;;;6202112;28;20042;-80
2023/06/15 08:44:01;;;;;;;4.18;3.35;;;;;;;;;;6208857;28;20096;-80
2023/06/15 08:47:03;;;;;;;5.55;3.42;;;;;;;;;;6208897;28;20042;-80
2023/06/15 08:50:06;;;;;;;4.82;3.53;;;;;;;;;;6197347;28;20527;-81
2023/06/15 08:53:08;;;;;;;5.00;3.10;;;;;;;;;;6189688;28;20046;-80
2023/06/15 08:56:13;;;;;;;4.70;3.55;;;;;;;;;;6186795;28;20048;-80
2023/06/15 08:59:15;;;;;;;6.72;3.30;;;;;;;;;;6191882;28;20038;-81
2023/06/15 09:02:22;;;;;;;4.53;3.35;;;;;;;;;;6201947;28;20050;-80
2023/06/15 09:05:25;;;;;;;3.30;2.97;;;;;;;;;;6206110;28;20499;-80
2023/06/15 09:08:27;;;;;;;7.72;3.38;;;;;;;;;;6207058;28;20065;-80
2023/06/15 09:11:29;;;;;;;5.95;2.95;;;;;;;;;;6219030;28;20072;-79
2023/06/15 09:14:39;;;;;;;3.55;3.10;;;;;;;;;;6201718;28;20056;-81
2023/06/15 09:17:41;;;;;;;4.75;3.10;;;;;;;;;;6201490;28;20190;-79
2023/06/15 09:20:43;;;;;;;3.60;2.90;;;;;;;;;;6182207;28;20600;-78
2023/06/15 09:23:46;;;;;;;6.23;3.20;;;;;;;;;;6179192;28;20065;-80
2023/06/15 09:26:48;;;;;;;6.47;3.33;;;;;;;;;;6199323;28;20467;-82
2023/06/15 09:30:05;;;;;;;3.63;3.07;;;;;;;;;;6202317;28;20053;-81
2023/06/15 09:33:12;;;;;;;4.95;2.97;;;;;;;;;;6197967;28;20046;-83
2023/06/15 09:36:14;;;;;;;3.95;3.00;;;;;;;;;;6198275;28;20042;-80
2023/06/15 09:39:24;;;;;;;4.40;3.17;;;;;;;;;;6175958;28;20057;-79
2023/06/15 09:42:27;;;;;;;5.32;3.00;;;;;;;;;;6183955;28;20096;-80
2023/06/15 09:45:28;;;;;;;3.85;3.15;;;;;;;;;;6180830;28;20128;-79
2023/06/15 09:48:30;;;;;;;8.00;3.07;;;;;;;;;;6200089;28;20061;-83
2023/06/15 09:51:35;;;;;;;3.53;3.00;;;;;;;;;;6197021;28;20050;-79
2023/06/15 09:54:39;;;;;;;4.90;2.80;;;;;;;;;;6195727;28;20053;-79
2023/06/15 09:57:41;;;;;;;3.75;2.97;;;;;;;;;;6190957;28;20125;-80
2023/06/15 10:00:43;;;;;;;4.55;2.78;;;;;;;;;;6187549;28;20049;-80
2023/06/15 10:03:52;;;;;;;6.38;3.08;;;;;;;;;;6187302;28;20097;-80
2023/06/15 10:07:02;;;;;;;7.45;3.42;;;;;;;;;;6180770;28;20046;-80
2023/06/15 10:10:05;;;;;;;4.22;2.90;;;;;;;;;;6203187;28;20046;-80
2023/06/15 10:13:12;;;;;;;5.50;2.90;;;;;;;;;;6203815;28;20415;-80
2023/06/15 10:16:15;;;;;;;5.40;3.13;;;;;;;;;;6183528;28;20084;-80
2023/06/15 10:19:21;;;;;;;4.13;2.55;;;;;;;;;;6194607;28;20060;-80
2023/06/15 10:22:24;;;;;;;4.82;3.03;;;;;;;;;;6197513;28;20082;-79
2023/06/15 10:25:27;;;;;;;6.30;2.90;;;;;;;;;;6181411;28;20042;-80
2023/06/15 10:28:33;;;;;;;3.90;2.80;;;;;;;;;;6182514;28;20048;-80
2023/06/15 10:32:00;;;;;;;3.60;2.90;;;;;;;;;;6173166;28;20060;-80
2023/06/15 10:35:25;;;;;;;4.60;2.83;;;;;;;;;;6180349;28;20535;-81
2023/06/15 10:38:35;;;;;;;4.78;3.05;;;;;;;;;;6195225;28;20050;-80
2023/06/15 10:41:38;;;;;;;4.72;3.70;;;;;;;;;;6182049;28;20132;-80
2023/06/15 10:44:40;;;;;;;4.68;3.30;;;;;;;;;;6185154;28;20038;-81
2023/06/15 10:47:51;;;;;;;6.07;3.30;;;;;;;;;;6198367;28;20484;-79
2023/06/15 10:51:01;;;;;;;4.50;3.33;;;;;;;;;;6196075;28;20056;-79
2023/06/15 10:54:04;;;;;;;5.38;3.38;;;;;;;;;;6202621;28;20536;-78
2023/06/15 10:57:06;;;;;;;7.28;3.20;;;;;;;;;;6200596;28;20042;-78
2023/06/15 11:00:10;;;;;;;7.22;3.35;;;;;;;;;;6204718;28;20053;-79
2023/06/15 11:03:26;;;;;;;6.82;3.35;;;;;;;;;;6200843;28;20080;-79
2023/06/15 11:06:37;;;;;;;4.68;3.22;;;;;;;;;;6181985;28;20064;-78
2023/06/15 11:09:40;;;;;;;5.28;3.08;;;;;;;;;;6198657;28;20052;-78
2023/06/15 11:12:43;;;;;;;5.65;3.30;;;;;;;;;;6200882;28;20050;-80
2023/06/15 11:15:45;;;;;;;6.07;3.15;;;;;;;;;;6191525;28;20133;-79
2023/06/15 11:19:16;;;;;;;3.58;3.17;;;;;;;;;;6166056;28;20058;-80
2023/06/15 11:22:27;;;;;;;4.15;3.30;;;;;;;;;;6153612;28;20128;-77
2023/06/15 11:25:29;;;;;;;8.52;3.35;;;;;;;;;;6194532;28;20144;-78
2023/06/15 11:28:33;;;;;;;;;;;;;;;;;;6182602;28;20046;-77
2023/06/15 11:31:42;;;;;;;7.97;3.50;;;;;;;;;;6181462;28;19925;-77
2023/06/15 11:34:43;;;;;;;4.97;3.20;;;;;;;;;;6201477;28;20049;-79
2023/06/15 11:37:45;;;;;;;3.10;2.80;;;;;;;;;;6201317;28;20043;-75
2023/06/15 11:40:47;;;;;;;3.58;3.10;;;;;;;;;;6183481;28;20046;-75
2023/06/15 11:43:49;;;;;;;3.88;3.30;;;;;;;;;;6203431;28;20045;-78
2023/06/15 11:47:01;;;;;;;6.13;3.20;;;;;;;;;;6201106;28;20050;-78
2023/06/15 11:50:04;;;;;;;3.65;3.35;;;;;;;;;;6203248;28;20057;-75
2023/06/15 11:53:05;;;;;;;;;;;;;;;;;;6202671;28;20061;-75
2023/06/15 11:56:12;;;;;;;4.20;3.28;;;;;;;;;;6200324;28;19925;-75
2023/06/15 11:59:18;;;;;;;4.18;2.97;;;;;;;;;;6206459;28;20132;-76
2023/06/15 12:02:20;;;;;;;8.23;3.30;;;;;;;;;;6209427;28;20050;-75
2023/06/15 12:05:23;;;;;;;4.93;3.25;;;;;;;;;;6182898;28;20534;-75
2023/06/15 12:08:26;;;;;;;3.97;3.20;;;;;;;;;;6191020;28;20042;-76
2023/06/15 12:11:29;;;;;;;5.65;3.35;;;;;;;;;;6182692;28;20464;-75
2023/06/15 12:14:30;;;;;;;;;;;;;;;;;;6187553;28;20050;-75
2023/06/15 12:17:34;;;;;;;5.88;3.47;;;;;;;;;;6204221;28;20003;-76
2023/06/15 12:20:37;;;;;;;3.65;3.35;;;;;;;;;;6184672;28;20053;-77
2023/06/15 12:23:39;;;;;;;;;;;;;;;;;;6200283;28;20046;-77
2023/06/15 12:26:41;;;;;;;6.07;3.22;;;;;;;;;;6201255;28;19922;-78
2023/06/15 12:29:42;;;;;;;4.10;3.15;;;;;;;;;;6191057;28;20059;-78
2023/06/15 12:32:45;;;;;;;4.35;3.08;;;;;;;;;;6179463;28;20069;-78
2023/06/15 12:35:50;;;;;;;4.72;3.70;;;;;;;;;;6197996;28;20049;-84
2023/06/15 12:38:52;;;;;;;5.47;3.20;;;;;;;;;;6199952;28;20463;-79
2023/06/15 12:42:01;;;;;;;4.90;3.30;;;;;;;;;;6206464;28;20125;-78
2023/06/15 12:45:04;;;;;;;4.50;3.30;;;;;;;;;;6190785;28;20116;-76
2023/06/15 12:48:06;;;;;;;5.70;3.22;;;;;;;;;;6173935;28;20416;-76
2023/06/15 12:51:09;;;;;;;4.65;3.28;;;;;;;;;;6176731;28;20172;-79
2023/06/15 12:54:10;;;;;;;5.15;3.38;;;;;;;;;;6203082;28;20046;-78
2023/06/15 12:57:12;;;;;;;7.53;3.22;;;;;;;;;;6209628;28;20544;-76
2023/06/15 13:00:14;;;;;;;6.70;3.25;;;;;;;;;;6207669;28;20080;-78
2023/06/15 13:03:17;;;;;;;5.63;3.50;;;;;;;;;;6199919;28;20045;-78
2023/06/15 13:06:19;;;;;;;;;;;;;;;;;;6201445;28;20060;-75
2023/06/15 13:09:20;;;;;;;3.38;3.08;;;;;;;;;;6200025;28;19921;-74
2023/06/15 13:12:22;;;;;;;6.53;3.53;;;;;;;;;;6199847;28;20086;-76
2023/06/15 13:15:25;;;;;;;4.93;3.00;;;;;;;;;;6187870;28;20093;-76
2023/06/15 13:18:27;;;;;;;4.75;3.08;;;;;;;;;;6177451;28;20479;-74
2023/06/15 13:21:29;;;;;;;4.70;3.40;;;;;;;;;;6196085;28;20050;-75
2023/06/15 13:24:30;;;;;;;5.10;3.30;;;;;;;;;;6192496;28;20161;-75
2023/06/15 13:27:37;;;;;;;3.55;2.92;;;;;;;;;;6198755;28;20523;-75
2023/06/15 13:30:39;;;;;;;3.25;2.88;;;;;;;;;;6197980;28;20100;-76
2023/06/15 13:33:41;;;;;;;5.47;3.40;;;;;;;;;;6176865;28;20141;-78
2023/06/15 13:36:42;;;;;;;3.90;3.38;;;;;;;;;;6197050;28;20448;-77
2023/06/15 13:39:44;;;;;;;4.20;3.30;;;;;;;;;;6187686;28;20065;-75
2023/06/15 13:42:46;;;;;;;4.20;3.27;;;;;;;;;;6180257;28;20172;-77
2023/06/15 13:45:47;;;;;;;4.25;3.28;;;;;;;;;;6193465;28;20445;-76
2023/06/15 13:48:49;;;;;;;5.87;3.70;;;;;;;;;;6192041;28;20045;-76
2023/06/15 13:51:51;;;;;;;5.28;3.50;;;;;;;;;;6197225;28;20452;-77
2023/06/15 13:54:52;;;;;;;4.63;3.58;;;;;;;;;;6203754;28;20122;-77
2023/06/15 13:57:55;;;;;;;9.65;3.40;;;;;;;;;;6189671;28;20638;-77
2023/06/15 14:00:57;;;;;;;5.95;3.35;;;;;;;;;;6207382;28;20045;-78
2023/06/15 14:03:59;;;;;;;5.85;3.17;;;;;;;;;;6204764;28;20060;-78
2023/06/15 14:07:01;;;;;;;5.05;3.70;;;;;;;;;;6198658;28;20046;-79
2023/06/15 14:10:03;;;;;;;6.93;3.60;;;;;;;;;;6199862;28;20049;-77
2023/06/15 14:13:06;;;;;;;6.82;3.50;;;;;;;;;;6204927;28;20042;-77
2023/06/15 14:16:08;;;;;;;3.80;3.47;;;;;;;;;;6199663;28;20065;-75
2023/06/15 14:19:09;;;;;;;4.82;3.15;;;;;;;;;;6186829;28;21923;-78
2023/06/15 14:22:11;;;;;;;5.80;3.30;;;;;;;;;;6198471;28;20046;-78
2023/06/15 14:25:13;;;;;;;5.72;3.25;;;;;;;;;;6198802;28;20074;-78
2023/06/15 14:28:16;;;;;;;5.63;3.53;;;;;;;;;;6199698;28;20424;-76
2023/06/15 14:31:19;;;;;;;5.20;3.80;;;;;;;;;;6201979;28;20109;-77
2023/06/15 14:34:21;;;;;;;5.07;3.40;;;;;;;;;;6179238;28;20460;-76
2023/06/15 14:37:23;;;;;;;4.55;3.67;;;;;;;;;;6200244;28;20139;-78
2023/06/15 14:40:24;;;;;;;7.18;3.28;;;;;;;;;;6199459;28;20093;-77
2023/06/15 14:43:26;;;;;;;4.53;3.20;;;;;;;;;;6196433;28;20046;-77
2023/06/15 14:46:28;;;;;;;4.50;3.55;;;;;;;;;;6188944;28;20061;-77
2023/06/15 14:49:29;;;;;;;5.22;3.58;;;;;;;;;;6197288;28;20038;-77
2023/06/15 14:52:31;;;;;;;4.75;3.50;;;;;;;;;;6196050;28;20057;-77
2023/06/15 14:55:32;;;;;;;5.25;3.70;;;;;;;;;;6180978;28;20038;-77
2023/06/15 14:58:37;;;;;;;4.82;3.67;;;;;;;;;;6191284;28;20089;-77
2023/06/15 15:01:38;;;;;;;4.45;3.60;;;;;;;;;;6188698;28;20046;-77
2023/06/15 15:04:40;;;;;;;4.68;3.50;;;;;;;;;;6195427;28;20058;-77
2023/06/15 15:07:42;;;;;;;5.20;3.30;;;;;;;;;;6165702;28;20046;-76
2023/06/15 15:10:44;;;;;;;6.97;3.63;;;;;;;;;;6200172;28;20049;-77
2023/06/15 15:13:45;;;;;;;5.55;3.45;;;;;;;;;;6181577;28;20447;-77
2023/06/15 15:16:47;;;;;;;4.47;3.50;;;;;;;;;;6191488;28;20066;-77
2023/06/15 15:19:48;;;;;;;5.82;3.42;;;;;;;;;;6176734;28;20053;-77
2023/06/15 15:22:50;;;;;;;4.30;3.23;;;;;;;;;;6193190;28;20042;-77
2023/06/15 15:25:52;;;;;;;4.20;3.57;;;;;;;;;;6178744;28;20409;-77
2023/06/15 15:28:53;;;;;;;6.35;3.60;;;;;;;;;;6195966;28;20091;-76
2023/06/15 15:31:55;;;;;;;6.47;3.60;;;;;;;;;;6179212;28;20130;-77
2023/06/15 15:34:56;;;;;;;9.98;3.70;;;;;;;;;;6168033;28;20600;-76
2023/06/15 15:37:58;;;;;;;4.63;3.90;;;;;;;;;;6179907;28;20100;-76
2023/06/15 15:41:00;;;;;;;5.07;3.50;;;;;;;;;;6192142;28;20057;-77
2023/06/15 15:44:01;;;;;;;4.95;3.50;;;;;;;;;;6199249;28;20107;-77
2023/06/15 15:47:04;;;;;;;5.32;3.50;;;;;;;;;;6191115;28;20050;-78
2023/06/15 15:50:08;;;;;;;4.43;3.60;;;;;;;;;;6192089;28;20053;-77
2023/06/15 15:53:10;;;;;;;5.93;3.55;;;;;;;;;;6198802;28;20094;-77
2023/06/15 15:56:11;;;;;;;5.32;3.70;;;;;;;;;;6181976;28;20049;-77
2023/06/15 15:59:13;;;;;;;5.07;3.80;;;;;;;;;;6202647;28;20623;-77
2023/06/15 16:02:15;;;;;;;6.03;3.88;;;;;;;;;;6198102;28;20085;-76
2023/06/15 16:05:17;;;;;;;4.38;3.22;;;;;;;;;;6190213;28;20050;-77
2023/06/15 16:08:18;;;;;;;6.55;3.35;;;;;;;;;;6182982;28;20152;-76
2023/06/15 16:11:22;;;;;;;5.70;3.58;;;;;;;;;;6177049;28;20547;-77
2023/06/15 16:14:24;;;;;;;6.63;3.78;;;;;;;;;;6183351;28;20046;-77
2023/06/15 16:17:26;;;;;;;;;;;;;;;;;;6176492;28;20046;-77
2023/06/15 16:20:28;;;;;;;5.82;3.40;;;;;;;;;;6192618;28;19979;-77
2023/06/15 16:23:30;;;;;;;4.60;3.22;;;;;;;;;;6182323;28;20126;-76
2023/06/15 16:26:31;;;;;;;5.17;3.80;;;;;;;;;;6198887;28;20412;-77
2023/06/15 16:29:33;;;;;;;7.47;3.53;;;;;;;;;;6200450;28;20065;-76
2023/06/15 16:32:38;;;;;;;5.63;3.25;;;;;;;;;;6189027;28;20437;-76
2023/06/15 16:35:40;;;;;;;9.40;3.42;;;;;;;;;;6196349;28;20125;-76
2023/06/15 16:38:41;;;;;;;8.00;3.73;;;;;;;;;;6184253;28;20045;-76
2023/06/15 16:41:43;;;;;;;7.20;3.40;;;;;;;;;;6174453;28;20053;-76
2023/06/15 16:44:47;;;;;;;3.90;3.23;;;;;;;;;;6204686;28;20053;-75
2023/06/15 16:47:49;;;;;;;5.72;3.53;;;;;;;;;;6184810;28;20066;-77
2023/06/15 16:50:51;;;;;;;5.45;3.25;;;;;;;;;;6200175;28;20133;-77
2023/06/15 16:53:53;;;;;;;3.72;3.30;;;;;;;;;;6185884;28;20049;-77
2023/06/15 16:56:54;;;;;;;3.87;3.47;;;;;;;;;;6200247;28;20119;-77
2023/06/15 16:59:56;;;;;;;6.87;3.63;;;;;;;;;;6186776;28;20452;-76
2023/06/15 17:02:58;;;;;;;4.00;3.33;;;;;;;;;;6191340;28;20053;-76
2023/06/15 17:06:01;;;;;;;6.65;3.50;;;;;;;;;;6185729;28;20049;-77
2023/06/15 17:09:03;;;;;;;4.32;3.30;;;;;;;;;;6201704;28;20046;-79
2023/06/15 17:12:05;;;;;;;5.43;3.80;;;;;;;;;;6196532;28;20404;-80
2023/06/15 17:15:07;;;;;;;3.78;3.00;;;;;;;;;;6182718;28;20037;-83
2023/06/15 17:18:08;;;;;;;4.27;3.30;;;;;;;;;;6199208;28;20065;-82
2023/06/15 17:21:11;;;;;;;7.32;3.60;;;;;;;;;;6164859;28;20459;-81
2023/06/15 17:24:13;;;;;;;7.67;3.37;;;;;;;;;;6188917;28;20045;-79
2023/06/15 17:27:14;;;;;;;4.55;3.03;;;;;;;;;;6183959;28;20096;-79
2023/06/15 17:30:18;;;;;;;4.68;3.20;;;;;;;;;;6180397;28;20144;-80
2023/06/15 17:33:20;;;;;;;4.60;3.45;;;;;;;;;;6175672;28;20047;-79
2023/06/15 17:36:22;;;;;;;5.07;3.10;;;;;;;;;;6182519;28;20046;-77
2023/06/15 17:39:23;;;;;;;5.13;3.30;;;;;;;;;;6201720;28;20046;-79
2023/06/15 17:42:25;;;;;;;4.07;3.15;;;;;;;;;;6201369;28;20190;-78
2023/06/15 17:45:27;;;;;;;4.00;2.70;;;;;;;;;;6199954;28;20049;-80
2023/06/15 17:48:29;;;;;;;3.10;2.80;;;;;;;;;;6166921;28;20511;-80
2023/06/15 17:51:30;;;;;;;4.32;3.22;;;;;;;;;;6203808;28;20046;-79
2023/06/15 17:54:32;;;;;;;4.57;2.80;;;;;;;;;;6193909;28;20046;-78
2023/06/15 17:57:34;;;;;;;4.28;3.38;;;;;;;;;;6200947;28;20191;-78
2023/06/15 18:00:36;;;;;;;3.47;2.97;;;;;;;;;;6199391;28;20514;-78
2023/06/15 18:03:41;;;;;;;5.53;3.10;;;;;;;;;;6194183;28;20046;-79
2023/06/15 18:06:44;;;;;;;4.43;2.90;;;;;;;;;;6184973;28;20061;-79
2023/06/15 18:09:45;;;;;;;3.38;2.60;;;;;;;;;;6182197;28;20113;-78
2023/06/15 18:12:47;;;;;;;4.72;2.90;;;;;;;;;;6183532;28;20476;-79
2023/06/15 18:15:49;;;;;;;3.72;3.05;;;;;;;;;;6202320;28;20606;-79
2023/06/15 18:18:50;;;;;;;3.20;2.90;;;;;;;;;;6194675;28;20069;-80